Time;durP1;ratioP1;P1;durP2;ratioP2;P2;SDS_P1;SDS_P2;PMS_P1;PMS_P2;Temp;Humidity;BMP_temperature;BMP_pressure;BME280_temperature;BME280_humidity;BME280_pressure;Samples;Min_cycle;Max_cycle;Signal;HPM_P1;HPM_P2
2022/06/02 00:01:55;;;;;;;11.70;8.40;;;;;;;;;;5071566;28;20029;-69
2022/06/02 00:04:27;;;;;;;11.32;8.57;;;;;;;;;;5053766;28;20420;-71
2022/06/02 00:06:53;;;;;;;10.18;9.38;;;;;;;;;;5071525;28;20085;-70
2022/06/02 00:09:37;;;;;;;12.98;9.60;;;;;;;;;;5071464;28;20036;-69
2022/06/02 00:12:05;;;;;;;10.30;9.15;;;;;;;;;;5071540;28;20480;-69
2022/06/02 00:14:34;;;;;;;11.48;8.43;;;;;;;;;;5053274;28;20543;-69
2022/06/02 00:17:03;;;;;;;10.57;9.07;;;;;;;;;;5053824;28;20068;-69
2022/06/02 00:19:49;;;;;;;11.35;9.07;;;;;;;;;;5071395;28;20033;-70
2022/06/02 00:22:34;;;;;;;10.13;9.07;;;;;;;;;;5070964;28;20040;-69
2022/06/02 00:25:20;;;;;;;9.13;8.32;;;;;;;;;;5071011;28;20057;-69
2022/06/02 00:27:49;;;;;;;8.48;7.75;;;;;;;;;;5019852;28;20051;-68
2022/06/02 00:30:20;;;;;;;8.02;7.43;;;;;;;;;;5053262;28;20043;-69
2022/06/02 00:32:46;;;;;;;9.82;8.18;;;;;;;;;;5053152;28;20237;-68
2022/06/02 00:35:20;;;;;;;8.13;7.32;;;;;;;;;;5070988;28;20208;-69
2022/06/02 00:38:00;;;;;;;8.82;7.90;;;;;;;;;;5053047;28;20028;-70
2022/06/02 00:40:26;;;;;;;11.30;8.13;;;;;;;;;;5053233;28;20123;-69
2022/06/02 00:42:55;;;;;;;7.95;7.28;;;;;;;;;;5070754;28;20089;-69
2022/06/02 00:45:21;;;;;;;8.90;8.20;;;;;;;;;;5053086;28;20044;-69
2022/06/02 00:47:48;;;;;;;12.85;8.32;;;;;;;;;;5070523;28;20126;-70
2022/06/02 00:50:15;;;;;;;11.98;7.90;;;;;;;;;;5070841;28;20606;-70
2022/06/02 00:52:52;;;;;;;11.00;7.50;;;;;;;;;;5069918;28;20032;-70
2022/06/02 00:58:25;;;;;;;8.77;7.32;;;;;;;;;;5052545;28;20050;-70
2022/06/02 01:00:53;;;;;;;7.75;7.07;;;;;;;;;;5041990;28;20392;-71
2022/06/02 01:03:21;;;;;;;7.97;7.28;;;;;;;;;;5070468;28;20036;-70
2022/06/02 01:05:50;;;;;;;7.65;6.95;;;;;;;;;;5070227;28;20057;-70
2022/06/02 01:08:22;;;;;;;7.75;6.75;;;;;;;;;;5070289;28;20119;-71
2022/06/02 01:11:03;;;;;;;8.48;7.35;;;;;;;;;;5070223;28;20059;-69
2022/06/02 01:13:29;;;;;;;8.70;7.50;;;;;;;;;;5069917;28;20055;-69
2022/06/02 01:16:07;;;;;;;7.25;6.50;;;;;;;;;;5070118;28;20416;-71
2022/06/02 01:18:55;;;;;;;7.82;6.55;;;;;;;;;;5070325;28;20044;-69
2022/06/02 01:21:32;;;;;;;7.85;7.15;;;;;;;;;;5020388;28;20288;-70
2022/06/02 01:24:16;;;;;;;8.63;7.18;;;;;;;;;;5069525;28;20056;-70
2022/06/02 01:27:00;;;;;;;6.45;5.82;;;;;;;;;;5069931;28;20522;-69
2022/06/02 01:29:45;;;;;;;7.85;7.18;;;;;;;;;;5052183;28;20039;-69
2022/06/02 01:32:12;;;;;;;9.40;7.50;;;;;;;;;;5069990;28;20036;-70
2022/06/02 01:34:38;;;;;;;9.82;7.75;;;;;;;;;;5051816;28;20047;-70
2022/06/02 01:37:23;;;;;;;8.88;8.00;;;;;;;;;;5069919;28;20443;-69
2022/06/02 01:39:59;;;;;;;8.10;7.40;;;;;;;;;;5069563;28;20150;-70
2022/06/02 01:42:44;;;;;;;9.55;6.88;;;;;;;;;;5035543;28;20036;-69
2022/06/02 01:45:28;;;;;;;8.88;7.03;;;;;;;;;;5069852;28;20123;-70
2022/06/02 01:48:10;;;;;;;6.15;5.65;;;;;;;;;;5069650;28;20040;-70
2022/06/02 01:50:46;;;;;;;6.45;5.95;;;;;;;;;;5052068;28;20032;-70
2022/06/02 01:53:15;;;;;;;6.65;6.20;;;;;;;;;;5051417;28;20119;-70
2022/06/02 01:55:44;;;;;;;7.47;6.82;;;;;;;;;;5051272;28;20029;-69
2022/06/02 01:58:25;;;;;;;9.32;6.63;;;;;;;;;;5069480;28;20094;-70
2022/06/02 02:00:54;;;;;;;8.90;6.80;;;;;;;;;;5051575;28;20115;-71
2022/06/02 02:03:25;;;;;;;6.40;6.00;;;;;;;;;;5069408;28;20066;-70
2022/06/02 02:05:54;;;;;;;7.25;6.55;;;;;;;;;;5051297;28;20060;-69
2022/06/02 02:08:23;;;;;;;7.05;6.53;;;;;;;;;;5069285;28;20110;-68
2022/06/02 02:10:56;;;;;;;8.70;6.32;;;;;;;;;;5069252;28;20047;-70
2022/06/02 02:13:23;;;;;;;8.15;6.65;;;;;;;;;;5051199;28;20554;-69
2022/06/02 02:15:50;;;;;;;7.45;6.85;;;;;;;;;;5069280;28;20106;-70
2022/06/02 02:18:22;;;;;;;8.40;6.28;;;;;;;;;;5069476;28;20124;-69
2022/06/02 02:20:51;;;;;;;10.82;6.03;;;;;;;;;;5069177;28;20028;-70
2022/06/02 08:56:06;;;;;;;3.42;3.13;;;;;;;;;;5042589;28;20145;-72
2022/06/02 08:58:35;;;;;;;6.28;3.72;;;;;;;;;;5099806;28;20087;-73
2022/06/02 09:01:04;;;;;;;3.50;3.10;;;;;;;;;;5093986;28;20126;-72
2022/06/02 09:03:56;;;;;;;4.05;3.40;;;;;;;;;;5080182;28;20273;-72
2022/06/02 09:06:41;;;;;;;6.78;3.95;;;;;;;;;;5067566;28;20104;-71
2022/06/02 09:09:10;;;;;;;4.35;3.97;;;;;;;;;;5089041;28;20411;-71
2022/06/02 09:11:41;;;;;;;5.80;3.50;;;;;;;;;;5071001;28;20117;-71
2022/06/02 09:14:26;;;;;;;8.48;3.58;;;;;;;;;;5068604;28;20087;-71
2022/06/02 09:16:59;;;;;;;7.05;3.33;;;;;;;;;;5094636;28;20117;-70
2022/06/02 09:19:32;;;;;;;5.78;3.42;;;;;;;;;;5088643;28;20135;-73
2022/06/02 09:22:02;;;;;;;4.95;3.30;;;;;;;;;;5090264;28;20547;-72
2022/06/02 09:24:34;;;;;;;4.70;3.20;;;;;;;;;;5089578;28;20047;-72
2022/06/02 09:27:19;;;;;;;4.97;2.70;;;;;;;;;;5089519;28;20075;-72
2022/06/02 09:30:03;;;;;;;3.67;3.30;;;;;;;;;;5084643;28;20047;-70
2022/06/02 09:32:48;;;;;;;5.28;3.28;;;;;;;;;;5098332;28;20607;-71
2022/06/02 09:35:22;;;;;;;6.50;3.17;;;;;;;;;;5097501;28;20430;-72
2022/06/02 09:38:07;;;;;;;4.13;3.08;;;;;;;;;;5096075;28;20356;-73
2022/06/02 09:40:46;;;;;;;3.92;3.13;;;;;;;;;;5078976;28;20035;-72
2022/06/02 09:43:12;;;;;;;4.05;3.63;;;;;;;;;;5090027;28;20043;-72
2022/06/02 09:45:41;;;;;;;4.90;3.40;;;;;;;;;;5089299;28;20044;-72
2022/06/02 09:48:25;;;;;;;3.65;2.72;;;;;;;;;;5085022;28;20134;-70
2022/06/02 09:51:01;;;;;;;3.42;3.22;;;;;;;;;;5089557;28;20108;-75
2022/06/02 09:53:46;;;;;;;6.30;3.13;;;;;;;;;;5088922;28;20089;-71
2022/06/02 09:56:29;;;;;;;4.85;3.05;;;;;;;;;;5089430;28;20074;-71
2022/06/02 09:58:59;;;;;;;3.30;3.00;;;;;;;;;;5090271;28;20510;-72
2022/06/02 10:01:28;;;;;;;3.00;2.80;;;;;;;;;;5088319;28;20638;-71
2022/06/02 10:04:10;;;;;;;5.57;3.00;;;;;;;;;;5089007;28;20032;-73
2022/06/02 10:06:54;;;;;;;3.63;3.22;;;;;;;;;;5090627;28;20036;-71
2022/06/02 10:09:38;;;;;;;9.30;3.60;;;;;;;;;;5090154;28;20109;-69
2022/06/02 10:15:22;;;;;;;3.50;3.20;;;;;;;;;;5088623;28;20058;-72
2022/06/02 10:17:57;;;;;;;3.83;3.17;;;;;;;;;;5089874;28;20036;-71
2022/06/02 10:20:33;;;;;;;4.43;3.13;;;;;;;;;;5089011;28;20048;-71
2022/06/02 10:23:02;;;;;;;4.88;3.50;;;;;;;;;;5089613;28;20535;-71
2022/06/02 10:25:34;;;;;;;6.70;3.30;;;;;;;;;;5088932;28;20330;-71
2022/06/02 10:28:36;;;;;;;4.10;3.38;;;;;;;;;;5089495;28;20474;-71
2022/06/02 10:31:05;;;;;;;3.40;3.17;;;;;;;;;;5006891;28;20096;-72
2022/06/02 10:33:49;;;;;;;3.33;3.03;;;;;;;;;;5074152;28;20135;-70
2022/06/02 10:36:20;;;;;;;3.20;2.78;;;;;;;;;;5088919;28;20044;-70
2022/06/02 10:38:55;;;;;;;4.88;2.92;;;;;;;;;;5088199;28;20036;-71
2022/06/02 10:41:33;;;;;;;5.28;3.05;;;;;;;;;;5088948;28;20189;-72
2022/06/02 10:44:07;;;;;;;3.95;2.90;;;;;;;;;;5089483;28;20506;-72
2022/06/02 10:46:44;;;;;;;4.85;3.45;;;;;;;;;;5089214;28;20051;-71
2022/06/02 10:49:14;;;;;;;3.97;3.10;;;;;;;;;;5087757;28;20040;-72
2022/06/02 10:51:40;;;;;;;;;;;;;;;;;;5089751;28;20492;-72
2022/06/02 10:54:25;;;;;;;4.40;3.33;;;;;;;;;;5089239;28;19920;-72
2022/06/02 10:56:56;;;;;;;4.78;3.25;;;;;;;;;;5089208;28;20582;-69
2022/06/02 10:59:26;;;;;;;4.72;3.05;;;;;;;;;;5088822;28;20408;-71
2022/06/02 11:01:57;;;;;;;4.80;3.30;;;;;;;;;;5088953;28;20032;-71
2022/06/02 11:04:26;;;;;;;3.65;3.33;;;;;;;;;;5089175;28;20494;-71
2022/06/02 11:06:58;;;;;;;5.72;3.30;;;;;;;;;;5089184;28;20040;-72
2022/06/02 11:09:24;;;;;;;3.55;3.00;;;;;;;;;;5089007;28;20449;-72
2022/06/02 11:11:56;;;;;;;4.78;3.38;;;;;;;;;;5089248;28;20032;-70
2022/06/02 11:14:34;;;;;;;5.38;3.58;;;;;;;;;;5088837;28;20064;-71
2022/06/02 11:17:19;;;;;;;5.25;3.20;;;;;;;;;;5089167;28;20043;-72
2022/06/02 11:19:56;;;;;;;3.50;3.20;;;;;;;;;;5089095;28;20044;-71
2022/06/02 11:22:39;;;;;;;3.42;2.90;;;;;;;;;;5087600;28;20472;-70
2022/06/02 11:25:05;;;;;;;3.92;3.30;;;;;;;;;;5071010;28;20047;-70
2022/06/02 11:27:43;;;;;;;4.10;3.08;;;;;;;;;;5088729;28;20119;-72
2022/06/02 11:30:27;;;;;;;5.68;3.63;;;;;;;;;;5088882;28;20040;-71
2022/06/02 11:32:56;;;;;;;3.35;3.05;;;;;;;;;;5087703;28;20044;-71
2022/06/02 11:35:40;;;;;;;4.15;3.33;;;;;;;;;;5086983;28;20152;-71
2022/06/02 11:38:29;;;;;;;3.28;3.03;;;;;;;;;;5089088;28;20391;-71
2022/06/02 11:40:57;;;;;;;4.00;3.00;;;;;;;;;;5091121;28;20043;-71
2022/06/02 11:43:29;;;;;;;3.22;2.92;;;;;;;;;;5073961;28;20071;-70
2022/06/02 11:45:58;;;;;;;4.32;3.20;;;;;;;;;;5091117;28;20089;-72
2022/06/02 11:48:27;;;;;;;3.33;3.13;;;;;;;;;;5092028;28;20105;-72
2022/06/02 11:50:59;;;;;;;5.95;3.20;;;;;;;;;;5090766;28;20396;-72
2022/06/02 11:53:25;;;;;;;3.63;3.33;;;;;;;;;;5091785;28;20044;-70
2022/06/02 11:56:11;;;;;;;3.53;3.13;;;;;;;;;;5091700;28;20054;-71
2022/06/02 11:58:55;;;;;;;6.57;3.25;;;;;;;;;;5091930;28;20503;-71
2022/06/02 12:01:26;;;;;;;4.03;3.35;;;;;;;;;;5091710;28;20112;-72
2022/06/02 12:03:58;;;;;;;5.47;3.15;;;;;;;;;;5074117;28;20135;-72
2022/06/02 12:06:42;;;;;;;3.92;3.60;;;;;;;;;;5090444;28;20040;-71
2022/06/02 12:09:11;;;;;;;8.68;3.58;;;;;;;;;;5092017;28;20046;-71
2022/06/02 12:11:47;;;;;;;6.25;3.03;;;;;;;;;;5091497;28;20605;-71
2022/06/02 12:14:19;;;;;;;4.00;3.03;;;;;;;;;;5091676;28;20052;-71
2022/06/02 12:17:02;;;;;;;6.28;3.83;;;;;;;;;;5091649;28;20047;-71
2022/06/02 12:19:37;;;;;;;4.82;3.53;;;;;;;;;;5090331;28;20059;-71
2022/06/02 12:22:19;;;;;;;3.25;3.03;;;;;;;;;;5091671;28;20048;-71
2022/06/02 12:24:49;;;;;;;3.08;2.80;;;;;;;;;;5090222;28;20158;-71
2022/06/02 12:27:14;;;;;;;;;;;;;;;;;;5090251;28;20101;-73
2022/06/02 12:29:52;;;;;;;3.45;3.08;;;;;;;;;;5090230;28;20307;-71
2022/06/02 12:32:34;;;;;;;4.55;3.28;;;;;;;;;;5090999;28;20036;-71
2022/06/02 12:35:19;;;;;;;3.35;3.15;;;;;;;;;;5090151;28;20052;-71
2022/06/02 12:37:58;;;;;;;3.60;3.28;;;;;;;;;;5090101;28;20047;-70
2022/06/02 12:40:47;;;;;;;3.88;3.45;;;;;;;;;;5090939;28;20040;-71
2022/06/02 12:43:33;;;;;;;3.42;3.13;;;;;;;;;;5085560;28;20050;-72
2022/06/02 12:45:59;;;;;;;3.80;3.08;;;;;;;;;;5091054;28;20051;-71
2022/06/02 12:48:28;;;;;;;3.50;3.20;;;;;;;;;;5089431;28;20071;-70
2022/06/02 12:51:06;;;;;;;8.33;3.20;;;;;;;;;;5090923;28;20044;-71
2022/06/02 12:53:41;;;;;;;3.53;3.03;;;;;;;;;;5090745;28;20104;-70
2022/06/02 12:56:29;;;;;;;6.00;3.33;;;;;;;;;;5090460;28;20124;-71
2022/06/02 12:58:54;;;;;;;6.28;3.70;;;;;;;;;;5090957;28;20044;-71
2022/06/02 13:01:30;;;;;;;6.40;3.70;;;;;;;;;;5090424;28;20513;-72
2022/06/02 13:04:04;;;;;;;5.32;3.40;;;;;;;;;;5091033;28;20051;-72
2022/06/02 13:06:49;;;;;;;6.43;3.10;;;;;;;;;;5089502;28;20531;-72
2022/06/02 13:09:15;;;;;;;3.72;3.35;;;;;;;;;;5090656;28;20040;-73
2022/06/02 13:12:00;;;;;;;4.88;3.40;;;;;;;;;;5090387;28;20507;-72
2022/06/02 13:14:32;;;;;;;3.97;3.00;;;;;;;;;;5088862;28;20154;-72
2022/06/02 13:17:04;;;;;;;3.17;2.95;;;;;;;;;;5090808;28;20072;-72
2022/06/02 13:19:49;;;;;;;5.65;3.30;;;;;;;;;;5088853;28;20089;-70
2022/06/02 13:22:21;;;;;;;3.85;3.15;;;;;;;;;;5090504;28;20047;-70
2022/06/02 13:24:57;;;;;;;5.10;3.17;;;;;;;;;;5090632;28;20044;-71
2022/06/02 13:27:41;;;;;;;2.85;2.63;;;;;;;;;;5088813;28;20131;-70
2022/06/02 13:30:22;;;;;;;5.00;3.10;;;;;;;;;;5090382;28;20052;-72
2022/06/02 13:32:48;;;;;;;3.97;3.47;;;;;;;;;;5090367;28;20185;-71
2022/06/02 13:35:35;;;;;;;5.20;3.20;;;;;;;;;;5090077;28;20450;-71
2022/06/02 13:38:19;;;;;;;4.53;2.70;;;;;;;;;;5090070;28;20515;-70
2022/06/02 13:40:54;;;;;;;4.30;2.90;;;;;;;;;;5090044;28;20044;-71
2022/06/02 13:43:35;;;;;;;6.35;3.47;;;;;;;;;;5088571;28;20098;-72
2022/06/02 13:46:04;;;;;;;4.97;3.20;;;;;;;;;;5089997;28;20054;-72
2022/06/02 13:48:49;;;;;;;4.23;2.80;;;;;;;;;;5089706;28;20048;-71
2022/06/02 13:51:33;;;;;;;4.88;3.33;;;;;;;;;;5089844;28;20040;-71
2022/06/02 14:00:08;;;;;;;4.45;3.15;;;;;;;;;;5088488;28;20044;-72
2022/06/02 14:02:34;;;;;;;5.35;3.25;;;;;;;;;;5089218;28;20043;-72
2022/06/02 14:05:00;;;;;;;6.28;3.42;;;;;;;;;;5088266;28;20040;-72
2022/06/02 14:07:44;;;;;;;6.03;3.28;;;;;;;;;;5089149;28;20040;-72
2022/06/02 14:10:13;;;;;;;6.70;3.60;;;;;;;;;;5089644;28;20040;-71
2022/06/02 14:12:48;;;;;;;4.13;3.38;;;;;;;;;;5089260;28;20055;-72
2022/06/02 14:15:19;;;;;;;3.45;3.03;;;;;;;;;;5089566;28;20040;-71
2022/06/02 14:18:03;;;;;;;4.15;2.90;;;;;;;;;;5087775;28;20103;-71
2022/06/02 14:20:48;;;;;;;7.22;2.67;;;;;;;;;;5088783;28;20048;-72
2022/06/02 14:23:18;;;;;;;6.30;3.10;;;;;;;;;;5089284;28;20127;-71
2022/06/02 14:25:57;;;;;;;4.55;3.20;;;;;;;;;;5070876;28;20044;-71
2022/06/02 14:28:23;;;;;;;9.00;3.42;;;;;;;;;;5071156;28;20416;-72
2022/06/02 14:30:52;;;;;;;3.47;3.15;;;;;;;;;;5087893;28;20131;-71
2022/06/02 14:33:24;;;;;;;5.90;4.17;;;;;;;;;;5089434;28;20040;-72
2022/06/02 14:36:09;;;;;;;3.53;3.15;;;;;;;;;;5089162;28;20090;-71
2022/06/02 14:38:36;;;;;;;5.72;3.47;;;;;;;;;;5089305;28;20051;-72
2022/06/02 14:41:14;;;;;;;4.57;3.20;;;;;;;;;;5088046;28;20040;-72
2022/06/02 14:43:46;;;;;;;9.77;3.40;;;;;;;;;;5087572;28;20060;-71
2022/06/02 14:46:31;;;;;;;4.97;3.10;;;;;;;;;;5089047;28;20040;-71
2022/06/02 14:49:09;;;;;;;4.32;3.15;;;;;;;;;;5089140;28;20142;-72
2022/06/02 14:51:35;;;;;;;4.90;3.17;;;;;;;;;;5088815;28;20111;-71
2022/06/02 14:54:04;;;;;;;6.68;3.70;;;;;;;;;;5088010;28;20052;-72
2022/06/02 14:56:30;;;;;;;9.27;4.13;;;;;;;;;;5070239;28;20083;-72
2022/06/02 14:59:00;;;;;;;7.47;3.50;;;;;;;;;;5089131;28;20050;-71
2022/06/02 15:01:36;;;;;;;5.63;3.75;;;;;;;;;;5088611;28;20040;-74
2022/06/02 15:04:28;;;;;;;4.28;3.30;;;;;;;;;;5087613;28;20060;-71
2022/06/02 15:07:01;;;;;;;4.00;3.30;;;;;;;;;;5086861;28;20120;-71
2022/06/02 15:09:27;;;;;;;7.30;3.50;;;;;;;;;;5088849;28;20040;-72
2022/06/02 15:12:02;;;;;;;5.97;2.97;;;;;;;;;;5088964;28;20123;-72
2022/06/02 15:14:47;;;;;;;5.72;3.60;;;;;;;;;;5092358;28;20043;-72
2022/06/02 15:17:29;;;;;;;9.18;3.38;;;;;;;;;;5092770;28;20149;-72
2022/06/02 15:19:55;;;;;;;4.63;3.53;;;;;;;;;;5091480;28;20066;-72
2022/06/02 15:22:39;;;;;;;8.23;3.80;;;;;;;;;;5092207;28;20040;-72
2022/06/02 15:25:09;;;;;;;5.75;3.92;;;;;;;;;;5092605;28;20048;-70
2022/06/02 15:27:46;;;;;;;5.50;3.90;;;;;;;;;;5092028;28;20111;-71
2022/06/02 15:30:31;;;;;;;8.05;3.70;;;;;;;;;;5092675;28;20414;-71
2022/06/02 15:32:56;;;;;;;9.80;4.05;;;;;;;;;;5092352;28;20058;-72
2022/06/02 15:35:23;;;;;;;7.63;4.18;;;;;;;;;;5091936;28;20472;-72
2022/06/02 15:37:54;;;;;;;14.25;3.90;;;;;;;;;;5091989;28;20036;-71
2022/06/02 15:40:39;;;;;;;10.80;4.38;;;;;;;;;;5092289;28;20109;-72
2022/06/02 15:43:20;;;;;;;12.15;4.65;;;;;;;;;;5092219;28;20130;-72
2022/06/02 15:45:58;;;;;;;6.43;4.63;;;;;;;;;;5091712;28;20105;-71
2022/06/02 15:48:30;;;;;;;6.18;4.32;;;;;;;;;;5091881;28;20147;-70
2022/06/02 15:50:59;;;;;;;10.57;4.53;;;;;;;;;;5091809;28;20415;-73
2022/06/02 15:53:28;;;;;;;4.82;4.35;;;;;;;;;;5090365;28;20417;-71
2022/06/02 15:55:57;;;;;;;11.75;5.28;;;;;;;;;;5091599;28;20531;-71
2022/06/02 15:58:42;;;;;;;7.95;4.88;;;;;;;;;;5090651;28;20146;-72
2022/06/02 16:01:08;;;;;;;6.90;4.80;;;;;;;;;;5092042;28;20040;-72
2022/06/02 16:03:42;;;;;;;5.72;3.97;;;;;;;;;;5091569;28;20544;-72
2022/06/02 16:06:08;;;;;;;11.05;3.97;;;;;;;;;;5090363;28;20036;-71
2022/06/02 16:08:34;;;;;;;5.72;3.53;;;;;;;;;;5091438;28;20048;-72
2022/06/02 16:11:15;;;;;;;9.48;4.65;;;;;;;;;;5090272;28;20036;-72
2022/06/02 16:13:49;;;;;;;7.07;4.30;;;;;;;;;;5073827;28;20044;-73
2022/06/02 16:16:33;;;;;;;8.75;3.97;;;;;;;;;;5071181;28;20048;-72
2022/06/02 16:19:18;;;;;;;3.40;3.10;;;;;;;;;;5084999;28;20040;-72
2022/06/02 16:22:05;;;;;;;5.47;4.10;;;;;;;;;;5085949;28;20126;-72
2022/06/02 16:24:49;;;;;;;5.38;3.47;;;;;;;;;;5090370;28;20051;-72
2022/06/02 16:27:24;;;;;;;5.03;3.85;;;;;;;;;;5091123;28;20032;-72
2022/06/02 16:29:56;;;;;;;5.75;3.08;;;;;;;;;;5090099;28;20105;-72
2022/06/02 16:32:41;;;;;;;5.07;3.60;;;;;;;;;;5090202;28;20119;-72
2022/06/02 16:35:10;;;;;;;4.22;3.70;;;;;;;;;;5089840;28;20466;-72
2022/06/02 16:37:47;;;;;;;6.45;3.80;;;;;;;;;;5089415;28;20040;-72
2022/06/02 16:40:16;;;;;;;5.35;3.60;;;;;;;;;;5089923;28;20036;-72
2022/06/02 16:43:00;;;;;;;5.25;3.50;;;;;;;;;;5089319;28;20463;-72
2022/06/02 16:45:30;;;;;;;8.30;3.92;;;;;;;;;;5090040;28;20499;-73
2022/06/02 16:47:56;;;;;;;;;;;;;;;;;;5089826;28;20047;-73
2022/06/02 16:50:28;;;;;;;6.90;3.63;;;;;;;;;;5071415;28;19912;-72
2022/06/02 16:56:34;;;;;;;8.88;3.80;;;;;;;;;;4982031;28;20078;-72
2022/06/02 16:59:00;;;;;;;6.35;3.63;;;;;;;;;;5068392;28;20036;-71
2022/06/02 17:01:42;;;;;;;8.13;5.00;;;;;;;;;;5078118;28;20108;-72
2022/06/02 17:04:20;;;;;;;10.93;4.68;;;;;;;;;;5089644;28;20067;-70
2022/06/02 17:06:54;;;;;;;5.72;4.38;;;;;;;;;;5065334;28;20437;-72
2022/06/02 17:09:23;;;;;;;8.20;3.28;;;;;;;;;;5087753;28;20040;-73
2022/06/02 17:12:01;;;;;;;15.23;3.70;;;;;;;;;;5089268;28;20071;-74
2022/06/02 17:14:49;;;;;;;4.32;3.50;;;;;;;;;;5071021;28;20055;-74
2022/06/02 17:17:23;;;;;;;6.85;4.65;;;;;;;;;;5103134;28;20063;-76
2022/06/02 17:19:59;;;;;;;5.85;3.85;;;;;;;;;;5083998;28;20575;-74
2022/06/02 17:22:41;;;;;;;4.22;3.75;;;;;;;;;;5100858;28;20052;-74
2022/06/02 17:25:25;;;;;;;8.38;4.70;;;;;;;;;;5088659;28;20070;-74
2022/06/02 17:27:54;;;;;;;7.70;4.93;;;;;;;;;;5078391;28;20028;-71
2022/06/02 17:30:26;;;;;;;8.00;6.57;;;;;;;;;;5084812;28;20043;-73
2022/06/02 17:33:03;;;;;;;13.77;6.32;;;;;;;;;;5088228;28;20047;-73
2022/06/02 17:35:32;;;;;;;22.00;8.27;;;;;;;;;;5086808;28;20574;-73
2022/06/02 17:38:01;;;;;;;10.70;6.85;;;;;;;;;;5083109;28;20025;-73
2022/06/02 17:40:45;;;;;;;9.80;6.78;;;;;;;;;;5087901;28;20044;-72
2022/06/02 17:43:21;;;;;;;8.82;7.95;;;;;;;;;;5085412;28;20469;-72
2022/06/02 17:46:00;;;;;;;11.23;8.93;;;;;;;;;;5086099;28;20093;-72
2022/06/02 17:48:25;;;;;;;9.85;8.05;;;;;;;;;;5087287;28;20040;-73
2022/06/02 17:50:58;;;;;;;13.98;12.27;;;;;;;;;;5087615;28;20526;-72
2022/06/02 17:53:42;;;;;;;5.88;5.25;;;;;;;;;;5086089;28;20419;-73
2022/06/02 17:56:09;;;;;;;10.35;6.57;;;;;;;;;;5083395;28;20131;-73
2022/06/02 17:59:01;;;;;;;7.32;6.35;;;;;;;;;;5087339;28;20075;-73
2022/06/02 18:01:26;;;;;;;6.38;4.80;;;;;;;;;;5053727;28;20123;-72
2022/06/02 18:03:56;;;;;;;16.42;7.65;;;;;;;;;;5086862;28;20055;-73
2022/06/02 18:06:24;;;;;;;10.32;7.50;;;;;;;;;;5087614;28;20036;-72
2022/06/02 18:08:54;;;;;;;7.97;6.65;;;;;;;;;;5084748;28;20043;-73
2022/06/02 18:11:26;;;;;;;21.02;9.63;;;;;;;;;;5087573;28;20044;-72
2022/06/02 18:13:55;;;;;;;4.88;4.47;;;;;;;;;;5087680;28;20044;-72
2022/06/02 18:16:27;;;;;;;8.38;6.00;;;;;;;;;;5087728;28;20036;-73
2022/06/02 18:19:05;;;;;;;11.57;6.30;;;;;;;;;;5085278;28;20037;-72
2022/06/02 18:21:43;;;;;;;6.25;5.07;;;;;;;;;;5085620;28;20652;-73
2022/06/02 18:24:12;;;;;;;7.15;5.20;;;;;;;;;;5087986;28;20491;-72
2022/06/02 18:26:54;;;;;;;25.85;15.60;;;;;;;;;;5087038;28;20036;-71
2022/06/02 18:29:32;;;;;;;14.95;9.02;;;;;;;;;;5087658;28;20070;-71
2022/06/02 18:32:05;;;;;;;22.67;15.88;;;;;;;;;;5077102;28;20036;-71
2022/06/02 18:34:50;;;;;;;17.08;9.77;;;;;;;;;;5086785;28;20048;-72
2022/06/02 18:37:22;;;;;;;10.23;6.28;;;;;;;;;;5084533;28;20076;-71
2022/06/02 18:39:53;;;;;;;12.48;7.93;;;;;;;;;;5085378;28;20079;-71
2022/06/02 18:42:22;;;;;;;13.38;9.27;;;;;;;;;;5087081;28;20038;-70
2022/06/02 18:44:54;;;;;;;11.07;8.60;;;;;;;;;;5087298;28;20044;-70
2022/06/02 18:47:23;;;;;;;7.35;6.50;;;;;;;;;;5089933;28;20035;-71
2022/06/02 18:50:07;;;;;;;8.82;6.43;;;;;;;;;;5091511;28;20152;-71
2022/06/02 18:52:39;;;;;;;11.20;8.38;;;;;;;;;;5087736;28;20411;-70
2022/06/02 18:55:23;;;;;;;13.90;9.65;;;;;;;;;;5091443;28;20071;-71
2022/06/02 18:57:55;;;;;;;15.50;10.70;;;;;;;;;;5090728;28;20241;-70
2022/06/02 19:00:36;;;;;;;14.68;10.27;;;;;;;;;;5088205;28;20043;-71
2022/06/02 19:03:14;;;;;;;10.50;9.30;;;;;;;;;;5086907;28;20114;-70
2022/06/02 19:05:44;;;;;;;13.43;11.45;;;;;;;;;;5090979;28;20090;-71
2022/06/02 19:14:15;;;;;;;12.05;8.80;;;;;;;;;;5088379;28;20035;-72
2022/06/02 19:17:00;;;;;;;11.77;10.43;;;;;;;;;;5090328;28;20619;-72
2022/06/02 19:19:28;;;;;;;12.32;9.80;;;;;;;;;;5091228;28;20044;-72
2022/06/02 19:22:17;;;;;;;9.02;8.13;;;;;;;;;;5083286;28;20078;-72
2022/06/02 19:24:43;;;;;;;11.57;10.38;;;;;;;;;;5086998;28;20060;-72
2022/06/02 19:27:09;;;;;;;16.27;13.10;;;;;;;;;;5090532;28;20446;-73
2022/06/02 19:29:47;;;;;;;22.45;14.77;;;;;;;;;;5083321;28;20047;-72
2022/06/02 19:32:19;;;;;;;18.83;13.98;;;;;;;;;;5090073;28;20043;-72
2022/06/02 19:35:04;;;;;;;17.95;12.98;;;;;;;;;;5090214;28;20079;-72
2022/06/02 19:37:46;;;;;;;17.33;9.90;;;;;;;;;;5090216;28;20579;-72
2022/06/02 19:40:12;;;;;;;9.07;8.00;;;;;;;;;;5087562;28;20431;-72
2022/06/02 19:42:49;;;;;;;13.23;9.13;;;;;;;;;;5089039;28;20048;-73
2022/06/02 19:45:18;;;;;;;11.98;7.93;;;;;;;;;;5072662;28;20040;-72
2022/06/02 19:47:47;;;;;;;15.25;9.07;;;;;;;;;;5088967;28;20051;-73
2022/06/02 19:50:33;;;;;;;14.82;11.55;;;;;;;;;;5089354;28;20032;-72
2022/06/02 19:53:00;;;;;;;17.40;11.57;;;;;;;;;;5090189;28;20043;-76
2022/06/02 19:55:31;;;;;;;19.73;11.43;;;;;;;;;;5085204;28;20079;-74
2022/06/02 19:58:06;;;;;;;9.95;7.97;;;;;;;;;;5089669;28;20454;-72
2022/06/02 20:00:44;;;;;;;9.93;6.22;;;;;;;;;;5090286;28;20036;-71
2022/06/02 20:03:11;;;;;;;11.93;9.15;;;;;;;;;;5090214;28;20102;-72
2022/06/02 20:05:52;;;;;;;8.80;8.00;;;;;;;;;;5088814;28;20072;-72
2022/06/02 20:08:33;;;;;;;10.75;8.25;;;;;;;;;;5086849;28;20032;-72
2022/06/02 20:11:01;;;;;;;;;;;;;;;;;;5086560;28;20139;-72
2022/06/02 20:13:31;;;;;;;8.52;7.70;;;;;;;;;;5088726;28;19912;-73
2022/06/02 20:15:58;;;;;;;10.00;8.77;;;;;;;;;;5086085;28;20040;-72
2022/06/02 20:18:32;;;;;;;11.43;10.02;;;;;;;;;;5094412;28;20044;-72
2022/06/02 20:21:16;;;;;;;16.65;11.02;;;;;;;;;;5098289;28;20044;-73
2022/06/02 20:23:51;;;;;;;16.40;14.23;;;;;;;;;;5096872;28;20562;-72
2022/06/02 20:26:22;;;;;;;20.75;14.40;;;;;;;;;;5095631;28;20048;-71
2022/06/02 20:29:09;;;;;;;18.08;12.70;;;;;;;;;;5095538;28;20036;-71
2022/06/02 20:31:35;;;;;;;21.35;16.38;;;;;;;;;;5091067;28;20048;-72
2022/06/02 20:34:18;;;;;;;22.38;16.30;;;;;;;;;;5091146;28;20634;-71
2022/06/02 20:36:55;;;;;;;27.40;16.50;;;;;;;;;;5093929;28;20048;-71
2022/06/02 20:39:35;;;;;;;24.95;12.65;;;;;;;;;;5095994;28;20035;-71
2022/06/02 20:42:19;;;;;;;18.50;13.05;;;;;;;;;;5094903;28;20044;-71
2022/06/02 20:44:51;;;;;;;16.33;11.25;;;;;;;;;;5094191;28;20118;-71
2022/06/02 20:47:20;;;;;;;15.55;12.40;;;;;;;;;;5096156;28;20848;-71
2022/06/02 20:50:04;;;;;;;16.40;14.75;;;;;;;;;;5097500;28;20039;-71
2022/06/02 20:52:41;;;;;;;15.60;11.05;;;;;;;;;;5087519;28;20047;-70
2022/06/02 20:55:12;;;;;;;14.55;10.07;;;;;;;;;;5082714;28;20051;-72
2022/06/02 20:57:42;;;;;;;17.25;10.55;;;;;;;;;;5087700;28;20055;-71
2022/06/02 21:00:28;;;;;;;22.90;10.20;;;;;;;;;;5103237;28;20044;-70
2022/06/02 21:02:56;;;;;;;18.42;10.25;;;;;;;;;;5079574;28;20504;-70
2022/06/02 21:05:22;;;;;;;20.38;11.32;;;;;;;;;;5071196;28;20576;-72
2022/06/02 21:07:50;;;;;;;10.35;8.90;;;;;;;;;;5069224;28;20139;-73
2022/06/02 21:10:30;;;;;;;9.13;8.10;;;;;;;;;;5078683;28;20028;-73
2022/06/02 21:12:56;;;;;;;7.93;7.22;;;;;;;;;;5082410;28;20044;-72
2022/06/02 21:15:45;;;;;;;10.43;7.47;;;;;;;;;;5090621;28;20048;-73
2022/06/02 21:18:27;;;;;;;11.73;8.52;;;;;;;;;;5090621;28;20086;-73
2022/06/02 21:20:55;;;;;;;10.88;7.47;;;;;;;;;;5090408;28;20054;-73
2022/06/02 21:23:28;;;;;;;8.30;7.65;;;;;;;;;;5089370;28;20146;-73
2022/06/02 21:26:00;;;;;;;8.95;8.15;;;;;;;;;;5089218;28;20538;-73
2022/06/02 21:28:26;;;;;;;9.40;8.45;;;;;;;;;;5090276;28;20460;-73
2022/06/02 21:30:52;;;;;;;9.85;8.75;;;;;;;;;;5087887;28;20048;-74
2022/06/02 21:33:21;;;;;;;9.35;8.55;;;;;;;;;;5088389;28;20109;-74
2022/06/02 21:35:49;;;;;;;10.48;9.57;;;;;;;;;;5089433;28;20043;-73
2022/06/02 21:38:21;;;;;;;16.08;10.43;;;;;;;;;;5090402;28;20040;-72
2022/06/02 21:40:47;;;;;;;12.63;10.65;;;;;;;;;;5089998;28;20566;-73
2022/06/02 21:43:15;;;;;;;10.48;9.43;;;;;;;;;;5090239;28;20044;-72
2022/06/02 21:45:46;;;;;;;10.05;9.10;;;;;;;;;;5088791;28;20055;-74
2022/06/02 21:48:22;;;;;;;10.70;9.63;;;;;;;;;;5088918;28;20071;-73
2022/06/02 21:51:08;;;;;;;11.13;10.13;;;;;;;;;;5088617;28;20040;-74
2022/06/02 21:53:46;;;;;;;13.43;10.30;;;;;;;;;;5088482;28;20514;-75
2022/06/02 21:56:15;;;;;;;11.30;10.10;;;;;;;;;;5089926;28;20537;-74
2022/06/02 21:58:43;;;;;;;11.48;10.43;;;;;;;;;;5089628;28;20056;-74
2022/06/02 22:01:09;;;;;;;11.43;9.60;;;;;;;;;;5088902;28;20134;-74
2022/06/02 22:03:35;;;;;;;11.50;9.27;;;;;;;;;;5089457;28;20128;-74
2022/06/02 22:06:03;;;;;;;13.82;9.93;;;;;;;;;;5089316;28;20515;-73
2022/06/02 22:08:36;;;;;;;10.27;9.27;;;;;;;;;;5088520;28;20044;-73
2022/06/02 22:11:11;;;;;;;9.73;8.68;;;;;;;;;;5087572;28;20044;-73
2022/06/02 22:13:39;;;;;;;9.43;8.55;;;;;;;;;;5089344;28;20044;-73
2022/06/02 22:16:08;;;;;;;9.45;8.57;;;;;;;;;;5089564;28;20135;-74
2022/06/02 22:18:53;;;;;;;8.32;7.57;;;;;;;;;;5089722;28;20043;-73